Time;durP1;ratioP1;P1;durP2;ratioP2;P2;SDS_P1;SDS_P2;PMS_P1;PMS_P2;Temp;Humidity;BMP_temperature;BMP_pressure;BME280_temperature;BME280_humidity;BME280_pressure;Samples;Min_cycle;Max_cycle;Signal;HPM_P1;HPM_P2
2023/11/18 00:01:33;;;;;;;22.70;12.50;;;;;;;1.02;100.00;100779.24;105447;1259;99390;-76
2023/11/18 00:04:19;;;;;;;20.70;13.20;;;;;;;1.02;100.00;100778.75;105423;1257;98767;-77
2023/11/18 00:07:05;;;;;;;21.50;12.80;;;;;;;1.02;100.00;100783.89;105598;1257;99434;-77
2023/11/18 00:09:50;;;;;;;20.80;12.40;;;;;;;1.00;100.00;100788.96;105433;1256;101328;-75
2023/11/18 00:12:36;;;;;;;22.70;13.70;;;;;;;0.99;100.00;100785.50;105483;1257;99929;-76
2023/11/18 00:15:22;;;;;;;23.20;12.30;;;;;;;0.98;100.00;100790.11;105423;1257;99984;-76
2023/11/18 00:18:07;;;;;;;24.20;12.90;;;;;;;0.98;100.00;100792.64;105508;1257;97954;-77
2023/11/18 00:20:53;;;;;;;20.60;12.70;;;;;;;0.97;100.00;100795.31;105557;1255;98392;-76
2023/11/18 00:23:39;;;;;;;18.80;12.50;;;;;;;0.98;100.00;100799.33;105242;1256;102533;-76
2023/11/18 00:26:25;;;;;;;19.70;11.60;;;;;;;0.97;100.00;100800.27;105348;1256;100370;-77
2023/11/18 00:29:14;;;;;;;20.00;12.30;;;;;;;0.97;100.00;100798.98;105402;1258;99078;-76
2023/11/18 00:32:03;;;;;;;21.10;12.30;;;;;;;0.97;100.00;100804.63;105379;1259;98121;-76
2023/11/18 00:34:50;;;;;;;21.10;13.50;;;;;;;0.95;100.00;100808.16;105595;1259;97908;-75
2023/11/18 00:37:35;;;;;;;16.60;10.50;;;;;;;0.93;100.00;100809.05;105490;1256;101317;-76
2023/11/18 00:40:21;;;;;;;20.70;12.50;;;;;;;0.92;100.00;100812.23;105621;1257;99619;-76
2023/11/18 00:43:08;;;;;;;21.30;12.30;;;;;;;0.91;100.00;100814.27;105609;1258;99133;-76
2023/11/18 00:45:53;;;;;;;20.40;11.60;;;;;;;0.91;100.00;100816.94;105490;1256;97969;-76
2023/11/18 00:48:39;;;;;;;17.80;10.00;;;;;;;0.90;100.00;100813.43;105596;1259;98462;-77
2023/11/18 00:51:25;;;;;;;17.80;10.80;;;;;;;0.90;100.00;100819.98;105635;1259;101380;-76
2023/11/18 00:54:12;;;;;;;16.80;11.30;;;;;;;0.89;100.00;100824.28;105452;1256;138223;-76
2023/11/18 00:56:58;;;;;;;17.80;11.20;;;;;;;0.90;100.00;100825.59;105502;1259;98434;-76
2023/11/18 00:59:43;;;;;;;18.80;10.90;;;;;;;0.92;100.00;100828.98;105510;1256;99263;-77
2023/11/18 01:02:29;;;;;;;18.50;11.50;;;;;;;0.93;100.00;100828.17;105541;1259;98463;-77
2023/11/18 01:05:15;;;;;;;20.00;11.70;;;;;;;0.94;100.00;100828.80;105522;1256;102234;-77
2023/11/18 01:08:01;;;;;;;20.10;11.70;;;;;;;0.94;100.00;100830.71;105386;1256;99060;-76
2023/11/18 01:10:46;;;;;;;16.70;11.30;;;;;;;0.94;100.00;100831.63;105379;1259;97960;-77
2023/11/18 01:13:32;;;;;;;19.50;12.30;;;;;;;0.94;100.00;100831.77;105538;1259;97960;-77
2023/11/18 01:16:19;;;;;;;18.90;12.00;;;;;;;0.92;100.00;100830.34;105539;1256;98473;-76
2023/11/18 01:19:08;;;;;;;15.40;10.90;;;;;;;0.91;100.00;100832.36;105579;1260;102154;-76
2023/11/18 01:21:55;;;;;;;16.00;10.50;;;;;;;0.91;100.00;100828.30;105572;1257;100454;-76
2023/11/18 01:24:41;;;;;;;19.30;10.70;;;;;;;0.92;100.00;100828.42;105404;1257;98090;-77
2023/11/18 01:27:27;;;;;;;16.00;10.00;;;;;;;0.92;100.00;100832.11;105480;1260;98044;-78
2023/11/18 01:30:14;;;;;;;17.30;10.30;;;;;;;0.92;100.00;100827.70;105601;1257;98467;-78
2023/11/18 01:33:02;;;;;;;15.10;10.10;;;;;;;0.92;100.00;100827.23;105577;1259;102639;-78
2023/11/18 01:35:47;;;;;;;16.50;9.90;;;;;;;0.91;100.00;100827.25;105648;1257;99231;-77
2023/11/18 01:38:38;;;;;;;15.00;9.90;;;;;;;0.92;100.00;100825.64;105656;1257;98334;-77
2023/11/18 01:41:24;;;;;;;15.30;9.80;;;;;;;0.92;100.00;100825.99;105594;1256;97848;-76
2023/11/18 01:44:10;;;;;;;14.40;9.40;;;;;;;0.92;100.00;100823.67;105484;1258;98399;-77
2023/11/18 01:46:57;;;;;;;14.70;9.50;;;;;;;0.93;100.00;100818.16;105449;1256;102213;-77
2023/11/18 01:49:44;;;;;;;16.90;9.90;;;;;;;0.92;100.00;100812.98;105544;1259;99178;-77
2023/11/18 01:52:30;;;;;;;14.40;9.80;;;;;;;0.91;100.00;100817.98;105537;1259;98698;-76
2023/11/18 01:55:16;;;;;;;13.60;9.00;;;;;;;0.90;100.00;100819.98;105526;1257;97968;-77
2023/11/18 01:58:08;;;;;;;16.90;9.90;;;;;;;0.88;100.00;100821.16;105467;1260;98415;-77
2023/11/18 02:00:53;;;;;;;13.60;9.10;;;;;;;0.86;100.00;100826.59;105500;1260;103028;-77
2023/11/18 02:03:41;;;;;;;12.50;8.80;;;;;;;0.85;100.00;100826.14;105240;1257;100778;-76
2023/11/18 02:06:28;;;;;;;14.20;9.00;;;;;;;0.86;100.00;100830.51;105316;1257;98491;-76
2023/11/18 02:09:19;;;;;;;14.90;9.20;;;;;;;0.86;100.00;100831.86;105194;1258;98624;-77
2023/11/18 02:12:12;;;;;;;13.40;9.10;;;;;;;0.86;100.00;100836.27;105393;1259;99237;-77
2023/11/18 02:15:00;;;;;;;13.50;9.20;;;;;;;0.86;100.00;100839.83;105604;1256;101403;-76
2023/11/18 02:17:48;;;;;;;12.70;8.10;;;;;;;0.86;100.00;100840.19;105516;1260;100789;-77
2023/11/18 02:20:34;;;;;;;13.10;9.00;;;;;;;0.86;100.00;100842.48;105456;1256;97891;-77
2023/11/18 02:23:21;;;;;;;15.70;9.70;;;;;;;0.85;100.00;100840.63;105552;1259;97966;-77
2023/11/18 02:26:09;;;;;;;13.80;9.40;;;;;;;0.83;100.00;100838.27;105439;1259;98402;-77
2023/11/18 02:28:55;;;;;;;13.00;8.40;;;;;;;0.82;100.00;100834.86;105460;1257;102064;-76
2023/11/18 02:31:42;;;;;;;11.10;7.20;;;;;;;0.81;100.00;100837.94;105402;1256;100572;-77
2023/11/18 02:34:31;;;;;;;12.90;8.40;;;;;;;0.79;100.00;100841.03;105493;1261;97960;-77
2023/11/18 02:37:18;;;;;;;14.70;9.00;;;;;;;0.78;100.00;100844.09;105504;1259;97948;-77
2023/11/18 02:40:08;;;;;;;14.30;8.90;;;;;;;0.79;100.00;100849.63;105555;1255;98421;-76
2023/11/18 02:42:55;;;;;;;12.20;8.00;;;;;;;0.81;100.00;100853.93;105510;1256;101387;-76
2023/11/18 02:45:42;;;;;;;13.60;8.50;;;;;;;0.82;100.00;100857.02;105291;1261;99153;-77
2023/11/18 02:48:28;;;;;;;14.40;8.40;;;;;;;0.82;100.00;100856.27;105317;1259;99237;-76
2023/11/18 02:51:14;;;;;;;14.40;8.50;;;;;;;0.83;100.00;100856.39;105391;1259;99123;-77
2023/11/18 02:53:59;;;;;;;13.30;8.20;;;;;;;0.82;100.00;100860.69;105439;1259;98079;-76
2023/11/18 02:56:45;;;;;;;12.20;7.60;;;;;;;0.82;100.00;100860.66;105528;1259;102067;-76
2023/11/18 02:59:30;;;;;;;15.20;9.00;;;;;;;0.83;100.00;100863.25;105473;1257;99093;-77
2023/11/18 03:02:16;;;;;;;12.80;8.90;;;;;;;0.82;100.00;100867.71;105493;1257;99453;-76
2023/11/18 03:05:02;;;;;;;13.40;8.70;;;;;;;0.82;100.00;100872.64;105596;1259;98761;-77
2023/11/18 03:07:53;;;;;;;13.00;8.50;;;;;;;0.82;100.00;100878.46;105452;1259;99914;-76
2023/11/18 03:10:40;;;;;;;14.80;9.20;;;;;;;0.83;100.00;100879.80;105581;1256;102587;-76
2023/11/18 03:13:26;;;;;;;11.90;8.30;;;;;;;0.82;100.00;100878.08;105829;1257;99769;-77
2023/11/18 03:16:12;;;;;;;15.70;9.60;;;;;;;0.83;100.00;100874.48;105513;1259;100535;-77
2023/11/18 03:18:58;;;;;;;11.30;8.00;;;;;;;0.83;100.00;100876.98;105502;1257;98325;-75
2023/11/18 03:21:50;;;;;;;11.30;7.90;;;;;;;0.80;100.00;100883.50;105572;1259;98525;-76
2023/11/18 03:24:35;;;;;;;12.20;8.30;;;;;;;0.79;100.00;100887.80;105517;1259;101413;-77
2023/11/18 03:27:22;;;;;;;13.50;8.70;;;;;;;0.78;100.00;100897.67;105456;1257;100481;-77
2023/11/18 03:30:09;;;;;;;12.20;7.80;;;;;;;0.79;100.00;100898.55;105472;1257;97957;-76
2023/11/18 03:32:56;;;;;;;11.10;7.70;;;;;;;0.78;100.00;100899.28;106785;1256;97967;-77
2023/11/18 03:35:41;;;;;;;10.20;7.20;;;;;;;0.78;100.00;100899.08;105520;1259;97850;-77
2023/11/18 03:38:29;;;;;;;15.80;7.50;;;;;;;0.78;100.00;100898.94;105298;1256;101337;-77
2023/11/18 03:41:15;;;;;;;10.90;7.30;;;;;;;0.78;100.00;100901.92;105192;1259;100129;-76
2023/11/18 03:44:00;;;;;;;11.60;7.50;;;;;;;0.80;100.00;100906.02;105403;1270;99013;-78
2023/11/18 03:46:46;;;;;;;11.30;7.90;;;;;;;0.80;100.00;100906.54;105510;1259;98048;-75
2023/11/18 03:49:31;;;;;;;10.50;6.50;;;;;;;0.79;100.00;100906.44;105574;1260;99764;-77
2023/11/18 03:52:17;;;;;;;9.70;6.60;;;;;;;0.78;100.00;100909.13;105601;1257;101606;-77
2023/11/18 03:55:04;;;;;;;11.60;7.00;;;;;;;0.79;100.00;100909.27;105430;1255;100393;-77
2023/11/18 03:57:49;;;;;;;11.00;6.30;;;;;;;0.78;100.00;100914.20;105368;1262;98940;-77
2023/11/18 04:00:35;;;;;;;10.60;6.90;;;;;;;0.77;100.00;100919.20;105231;1260;98852;-77
2023/11/18 04:03:21;;;;;;;12.00;7.40;;;;;;;0.76;100.00;100916.18;105545;1260;98392;-78
2023/11/18 04:06:07;;;;;;;9.00;6.50;;;;;;;0.74;100.00;100921.08;105510;1257;101417;-78
2023/11/18 04:08:53;;;;;;;11.30;7.70;;;;;;;0.73;100.00;100920.98;105491;1257;99098;-77
2023/11/18 04:11:39;;;;;;;7.70;6.50;;;;;;;0.73;100.00;100926.59;105193;1262;99249;-76
2023/11/18 04:14:25;;;;;;;11.00;7.80;;;;;;;0.72;100.00;100930.48;105190;1257;97980;-76
2023/11/18 04:17:11;;;;;;;10.70;7.70;;;;;;;0.72;100.00;100934.76;105362;1256;97998;-78
2023/11/18 04:19:57;;;;;;;11.00;6.80;;;;;;;0.73;100.00;100938.19;105690;1259;102305;-77
2023/11/18 04:22:43;;;;;;;9.00;6.40;;;;;;;0.73;100.00;100937.41;105445;1256;99091;-76
2023/11/18 04:25:29;;;;;;;10.00;7.40;;;;;;;0.72;100.00;100934.18;105468;1260;99339;-77
2023/11/18 04:28:14;;;;;;;9.00;6.20;;;;;;;0.71;100.00;100935.85;105466;1257;97945;-77
2023/11/18 04:31:00;;;;;;;8.40;6.60;;;;;;;0.70;100.00;100938.23;105543;1256;98469;-76
2023/11/18 04:33:45;;;;;;;10.50;6.70;;;;;;;0.71;100.00;100941.34;105591;1257;101342;-77
2023/11/18 04:36:31;;;;;;;8.10;5.70;;;;;;;0.71;100.00;100946.92;105502;1275;100101;-77
2023/11/18 04:39:17;;;;;;;9.70;7.00;;;;;;;0.72;100.00;100946.66;105478;1259;99460;-77
2023/11/18 04:42:02;;;;;;;10.00;6.00;;;;;;;0.72;100.00;100948.77;105481;1257;97969;-77
2023/11/18 04:44:48;;;;;;;9.20;6.60;;;;;;;0.72;100.00;100944.55;105444;1259;98523;-77
2023/11/18 04:47:34;;;;;;;10.70;6.80;;;;;;;0.73;100.00;100951.03;105556;1260;102715;-75
2023/11/18 04:50:19;;;;;;;10.10;7.10;;;;;;;0.71;100.00;100956.08;105584;1259;100336;-77
2023/11/18 04:53:08;;;;;;;9.30;6.50;;;;;;;0.69;100.00;100954.85;105705;1259;98850;-77
2023/11/18 04:55:53;;;;;;;7.50;5.90;;;;;;;0.67;100.00;100957.60;105603;1259;98833;-77
2023/11/18 04:58:39;;;;;;;8.70;6.80;;;;;;;0.68;100.00;100957.86;105681;1257;98393;-77
2023/11/18 05:01:25;;;;;;;8.20;6.20;;;;;;;0.68;100.00;100955.95;105685;1258;101373;-77
2023/11/18 05:04:10;;;;;;;9.00;6.30;;;;;;;0.68;100.00;100956.66;105628;1259;100405;-76
2023/11/18 05:06:56;;;;;;;8.70;6.60;;;;;;;0.67;100.00;100957.81;105564;1256;98959;-76
2023/11/18 05:09:42;;;;;;;8.00;6.00;;;;;;;0.65;100.00;100957.27;106830;1257;97953;-76
2023/11/18 05:12:29;;;;;;;9.40;6.80;;;;;;;0.65;100.00;100965.15;105501;1258;98478;-76
2023/11/18 05:15:14;;;;;;;7.70;6.10;;;;;;;0.65;100.00;100965.29;105582;1257;101355;-77
2023/11/18 05:18:00;;;;;;;7.90;6.60;;;;;;;0.65;100.00;100970.44;105559;1260;100323;-78
2023/11/18 05:20:46;;;;;;;7.40;6.20;;;;;;;0.65;100.00;100975.86;105576;1256;97957;-77
2023/11/18 05:23:38;;;;;;;7.10;5.60;;;;;;;0.65;100.00;100979.73;105669;1257;97896;-77
2023/11/18 05:26:24;;;;;;;10.00;6.80;;;;;;;0.66;100.00;100984.97;105571;1257;98486;-76
2023/11/18 05:29:09;;;;;;;8.70;5.90;;;;;;;0.65;100.00;100987.45;105587;1258;101302;-77
2023/11/18 05:31:55;;;;;;;7.70;6.40;;;;;;;0.65;100.00;100986.45;105716;1256;100845;-76
2023/11/18 05:34:42;;;;;;;7.30;5.50;;;;;;;0.64;100.00;100985.60;105539;1255;98926;-77
2023/11/18 05:37:34;;;;;;;7.40;6.00;;;;;;;0.65;100.00;100987.14;105521;1256;97986;-76
2023/11/18 05:40:20;;;;;;;10.90;6.10;;;;;;;0.63;100.00;100992.33;106231;1256;96254;-77
2023/11/18 05:43:15;;;;;;;8.80;6.50;;;;;;;0.63;100.00;101001.54;105487;1257;102625;-77
2023/11/18 05:49:07;;;;;;;7.10;5.70;;;;;;;0.62;100.00;101015.95;105463;1260;97960;-77
2023/11/18 05:51:53;;;;;;;7.00;5.90;;;;;;;0.62;100.00;101021.62;105228;1259;97906;-77
2023/11/18 05:54:38;;;;;;;7.70;6.00;;;;;;;0.62;100.00;101028.80;105334;1259;99237;-77
2023/11/18 05:57:27;;;;;;;7.80;6.00;;;;;;;0.63;100.00;101033.31;105312;1256;102719;-77
2023/11/18 06:00:15;;;;;;;8.70;6.40;;;;;;;0.63;100.00;101039.28;105438;1257;99109;-77
2023/11/18 06:03:01;;;;;;;9.40;6.50;;;;;;;0.61;100.00;101040.80;105512;1257;98961;-77
2023/11/18 06:05:47;;;;;;;8.90;7.40;;;;;;;0.61;100.00;101043.48;105313;1257;98051;-77
2023/11/18 06:08:34;;;;;;;7.50;5.90;;;;;;;0.61;100.00;101046.31;105304;1259;99725;-75
2023/11/18 06:11:20;;;;;;;8.90;6.20;;;;;;;0.59;100.00;101045.73;105379;1259;101342;-76
2023/11/18 06:14:08;;;;;;;10.10;5.90;;;;;;;0.58;100.00;101051.76;105489;1257;99322;-77
2023/11/18 06:16:54;;;;;;;8.40;6.40;;;;;;;0.58;100.00;101059.14;105606;1257;98084;-77
2023/11/18 06:19:40;;;;;;;7.90;6.60;;;;;;;0.59;100.00;101066.59;105424;1260;97880;-76
2023/11/18 06:22:25;;;;;;;9.60;6.60;;;;;;;0.60;100.00;101072.34;105325;1257;97864;-77
2023/11/18 06:25:12;;;;;;;11.80;6.60;;;;;;;0.60;100.00;101074.80;105419;1257;101399;-77
2023/11/18 06:27:58;;;;;;;7.60;5.90;;;;;;;0.60;100.00;101076.60;105612;1257;99047;-77
2023/11/18 06:30:44;;;;;;;9.30;6.20;;;;;;;0.60;100.00;101081.17;105589;1257;97992;-78
2023/11/18 06:33:29;;;;;;;7.40;5.80;;;;;;;0.59;100.00;101086.11;105623;1259;97929;-77
2023/11/18 06:36:16;;;;;;;7.70;5.90;;;;;;;0.59;100.00;101090.34;105543;1255;98389;-77
2023/11/18 06:39:04;;;;;;;8.60;6.40;;;;;;;0.60;100.00;101095.00;105566;1259;102633;-77
2023/11/18 06:41:51;;;;;;;9.70;6.80;;;;;;;0.60;100.00;101098.72;105523;1257;99243;-77
2023/11/18 06:44:38;;;;;;;9.90;6.40;;;;;;;0.61;100.00;101091.10;105569;1259;98963;-78
2023/11/18 06:47:24;;;;;;;9.40;6.30;;;;;;;0.62;100.00;101096.48;105475;1257;97959;-77
2023/11/18 06:50:14;;;;;;;8.80;6.30;;;;;;;0.61;100.00;101099.85;105453;1259;98519;-76
2023/11/18 06:52:59;;;;;;;9.30;6.90;;;;;;;0.62;100.00;101104.91;105496;1257;102613;-76
2023/11/18 06:55:45;;;;;;;9.90;6.60;;;;;;;0.62;100.00;101105.46;105547;1254;99364;-77
2023/11/18 06:58:31;;;;;;;8.20;6.70;;;;;;;0.61;100.00;101107.63;105593;1259;98628;-77
2023/11/18 07:01:18;;;;;;;11.20;6.80;;;;;;;0.62;100.00;101110.70;105568;1259;97873;-77
2023/11/18 07:04:08;;;;;;;9.20;7.20;;;;;;;0.61;100.00;101118.30;105629;1257;97963;-76
2023/11/18 07:06:54;;;;;;;11.30;7.90;;;;;;;0.59;100.00;101118.63;105551;1257;101361;-77
2023/11/18 07:09:40;;;;;;;11.50;7.50;;;;;;;0.59;100.00;101123.42;105452;1260;100677;-76
2023/11/18 07:12:25;;;;;;;10.90;7.30;;;;;;;0.59;100.00;101124.64;105507;1257;99768;-77
2023/11/18 07:15:11;;;;;;;11.00;7.60;;;;;;;0.61;100.00;101129.22;105498;1260;97963;-77
2023/11/18 07:17:56;;;;;;;10.80;7.40;;;;;;;0.62;100.00;101134.44;105585;1257;98389;-76
2023/11/18 07:20:42;;;;;;;9.80;7.40;;;;;;;0.61;100.00;101141.36;105532;1259;102165;-77
2023/11/18 07:23:28;;;;;;;10.70;7.50;;;;;;;0.60;100.00;101145.61;105525;1256;99887;-77
2023/11/18 07:26:16;;;;;;;10.30;7.50;;;;;;;0.60;100.00;101151.06;105521;1259;98024;-77
2023/11/18 07:29:02;;;;;;;11.50;7.20;;;;;;;0.62;100.00;101154.66;105586;1259;97953;-78
2023/11/18 07:31:49;;;;;;;10.50;7.80;;;;;;;0.63;100.00;101159.85;105554;1259;97893;-77
2023/11/18 07:34:35;;;;;;;10.90;7.80;;;;;;;0.65;100.00;101166.19;105530;1259;101381;-78
2023/11/18 07:37:20;;;;;;;8.00;6.50;;;;;;;0.67;100.00;101172.23;106163;1258;99106;-80
2023/11/18 07:40:08;;;;;;;11.60;7.80;;;;;;;0.66;100.00;101176.49;106519;1254;97929;-82
2023/11/18 07:42:55;;;;;;;11.50;7.70;;;;;;;0.65;100.00;101176.21;106679;1254;98741;-80
2023/11/18 07:45:47;;;;;;;10.40;8.10;;;;;;;0.67;100.00;101185.24;105843;1257;97834;-83
2023/11/18 07:48:32;;;;;;;;;;;;;;;0.66;100.00;101191.64;106296;1260;102622;-85
2023/11/18 07:51:23;;;;;;;9.90;7.60;;;;;;;0.64;100.00;101195.09;106445;1256;99432;-85
2023/11/18 07:54:10;;;;;;;11.10;7.50;;;;;;;0.64;100.00;101197.00;106252;1256;97924;-82
2023/11/18 07:56:55;;;;;;;9.30;7.00;;;;;;;0.64;100.00;101201.43;106369;1256;97967;-82
2023/11/18 07:59:41;;;;;;;9.80;7.80;;;;;;;0.64;100.00;101203.13;106397;1254;97930;-81
2023/11/18 08:02:27;;;;;;;10.00;7.50;;;;;;;0.64;100.00;101208.60;106258;1260;101908;-81
2023/11/18 08:05:14;;;;;;;9.50;7.60;;;;;;;0.63;100.00;101213.80;105885;1261;100470;-81
2023/11/18 08:08:00;;;;;;;10.70;8.00;;;;;;;0.61;100.00;101211.10;106019;1257;98665;-78
2023/11/18 08:10:48;;;;;;;9.00;7.10;;;;;;;0.61;100.00;101208.09;106211;1256;97980;-82
2023/11/18 08:13:33;;;;;;;9.40;6.80;;;;;;;0.61;100.00;101206.02;106005;1262;98381;-82
2023/11/18 08:16:19;;;;;;;8.30;6.60;;;;;;;0.61;100.00;101207.43;106301;1259;102667;-81
2023/11/18 08:19:08;;;;;;;10.10;7.00;;;;;;;0.63;100.00;101209.10;106338;1262;99068;-82
2023/11/18 08:21:53;;;;;;;10.50;8.10;;;;;;;0.64;100.00;101212.67;106337;1257;99072;-82
2023/11/18 08:24:39;;;;;;;10.60;7.70;;;;;;;0.66;100.00;101211.67;106302;1257;97981;-82
2023/11/18 08:27:25;;;;;;;8.40;6.20;;;;;;;0.66;100.00;101213.74;106204;1256;97772;-81
2023/11/18 08:30:12;;;;;;;10.00;7.60;;;;;;;0.66;100.00;101216.89;105731;1258;101345;-83
2023/11/18 08:32:58;;;;;;;10.40;7.50;;;;;;;0.66;100.00;101219.19;106384;1256;100591;-79
2023/11/18 08:35:43;;;;;;;12.90;8.00;;;;;;;0.68;100.00;101219.10;106215;1257;99088;-84
2023/11/18 08:38:29;;;;;;;10.40;7.00;;;;;;;0.70;100.00;101219.64;106335;1257;97963;-81
2023/11/18 08:41:15;;;;;;;12.50;8.10;;;;;;;0.74;100.00;101223.55;106338;1256;98563;-82
2023/11/18 08:44:02;;;;;;;12.10;7.70;;;;;;;0.80;100.00;101228.06;106432;1257;101386;-79
2023/11/18 08:46:49;;;;;;;12.00;8.40;;;;;;;0.83;100.00;101232.27;106175;1259;99749;-78
2023/11/18 08:49:37;;;;;;;13.50;8.10;;;;;;;0.83;100.00;101235.91;106145;1256;99069;-87
2023/11/18 08:52:25;;;;;;;13.00;8.00;;;;;;;0.85;100.00;101237.01;106287;1257;97964;-86
2023/11/18 08:55:20;;;;;;;14.30;9.70;;;;;;;0.89;100.00;101242.91;105533;1259;98494;-76
2023/11/18 08:58:18;;;;;;;11.90;8.80;;;;;;;0.88;100.00;101246.29;107666;1259;102618;-80
2023/11/18 09:01:14;;;;;;;13.60;7.60;;;;;;;0.88;100.00;101246.15;106430;1259;100368;-86
2023/11/18 09:04:01;;;;;;;12.40;8.50;;;;;;;0.88;100.00;101248.38;106574;1257;98465;-87
2023/11/18 09:06:48;;;;;;;11.90;8.50;;;;;;;0.87;100.00;101253.56;105692;1260;98718;-79
2023/11/18 09:09:33;;;;;;;11.30;7.90;;;;;;;0.87;100.00;101258.52;105721;1266;98664;-78
2023/11/18 09:12:20;;;;;;;11.90;8.50;;;;;;;0.87;100.00;101260.80;105685;1257;102047;-79
2023/11/18 09:15:08;;;;;;;13.00;8.10;;;;;;;0.87;100.00;101263.94;105744;1257;99245;-78
2023/11/18 09:17:53;;;;;;;13.70;9.00;;;;;;;0.85;100.00;101263.92;105681;1260;98991;-81
2023/11/18 09:20:39;;;;;;;12.50;8.70;;;;;;;0.80;100.00;101263.55;106676;1259;97960;-80
2023/11/18 09:23:27;;;;;;;11.50;8.20;;;;;;;0.77;100.00;101259.58;105705;1259;98489;-78
2023/11/18 09:26:12;;;;;;;13.30;8.40;;;;;;;0.79;100.00;101263.65;106132;1257;102539;-86
2023/11/18 09:29:01;;;;;;;11.60;8.20;;;;;;;0.80;100.00;101261.77;106616;1257;98999;-85
2023/11/18 09:31:48;;;;;;;13.00;8.80;;;;;;;0.83;100.00;101259.36;106491;1257;98864;-85
2023/11/18 09:34:33;;;;;;;13.40;9.10;;;;;;;0.86;100.00;101258.59;106524;1263;98796;-85
2023/11/18 09:37:20;;;;;;;10.20;8.10;;;;;;;0.87;100.00;101258.86;106784;1257;97936;-85
2023/11/18 09:40:13;;;;;;;12.70;8.90;;;;;;;0.86;100.00;101257.16;106723;1259;102824;-90
2023/11/18 09:43:01;;;;;;;12.70;8.20;;;;;;;0.86;100.00;101257.54;105459;1262;99168;-78
2023/11/18 09:45:54;;;;;;;12.80;9.50;;;;;;;0.85;100.00;101258.45;105615;1259;99106;-77
2023/11/18 09:48:59;;;;;;;12.60;8.50;;;;;;;0.85;100.00;101254.91;105508;1259;97973;-77
2023/11/18 09:51:48;;;;;;;11.40;8.10;;;;;;;0.87;100.00;101254.66;105604;1258;98383;-79
2023/11/18 09:54:44;;;;;;;11.60;8.70;;;;;;;0.90;100.00;101254.98;105704;1264;102597;-77
2023/11/18 09:57:37;;;;;;;14.10;9.60;;;;;;;0.91;100.00;101255.70;105663;1257;99287;-78
2023/11/18 10:00:26;;;;;;;12.40;9.00;;;;;;;0.90;100.00;101256.66;105777;1268;99039;-79
2023/11/18 10:03:15;;;;;;;13.50;9.60;;;;;;;0.91;100.00;101257.14;105486;1259;98060;-79
2023/11/18 10:06:06;;;;;;;14.10;9.10;;;;;;;0.91;100.00;101259.06;105587;1262;98080;-77
2023/11/18 10:08:53;;;;;;;13.10;9.00;;;;;;;0.90;100.00;101263.01;105463;1269;102684;-78
2023/11/18 10:11:41;;;;;;;14.00;9.60;;;;;;;0.91;100.00;101268.08;105809;1257;99147;-79
2023/11/18 10:14:27;;;;;;;14.90;9.00;;;;;;;0.93;100.00;101267.40;105878;1267;98399;-78
2023/11/18 10:17:14;;;;;;;13.80;9.30;;;;;;;0.95;100.00;101269.02;105443;1260;97883;-79
2023/11/18 10:20:00;;;;;;;14.60;9.30;;;;;;;0.95;100.00;101267.95;105791;1260;98726;-78
2023/11/18 10:22:45;;;;;;;14.20;10.00;;;;;;;0.92;100.00;101270.46;105596;1263;101372;-78
2023/11/18 10:25:31;;;;;;;12.30;9.90;;;;;;;0.89;100.00;101272.27;105762;1259;99123;-77
2023/11/18 10:28:29;;;;;;;15.70;9.40;;;;;;;0.85;100.00;101275.48;105524;1268;97880;-77
2023/11/18 10:31:18;;;;;;;15.10;9.60;;;;;;;0.86;100.00;101276.33;105712;1257;99240;-79
2023/11/18 10:34:04;;;;;;;12.70;9.20;;;;;;;0.88;100.00;101277.76;105793;1257;97907;-78
2023/11/18 10:37:06;;;;;;;14.40;9.40;;;;;;;0.90;100.00;101277.13;105513;1260;101473;-78
2023/11/18 10:39:51;;;;;;;15.70;9.40;;;;;;;0.90;100.00;101277.09;105385;1260;99831;-77
2023/11/18 10:42:37;;;;;;;14.50;9.30;;;;;;;0.92;100.00;101280.50;105143;1260;98875;-77
2023/11/18 10:45:24;;;;;;;15.30;9.40;;;;;;;0.92;100.00;101282.73;105369;1258;97973;-76
2023/11/18 10:48:12;;;;;;;13.40;9.40;;;;;;;0.95;100.00;101281.30;105256;1262;98923;-77
2023/11/18 10:50:59;;;;;;;15.80;10.20;;;;;;;0.97;100.00;101283.45;105465;1266;102580;-78
2023/11/18 10:53:58;;;;;;;12.40;9.10;;;;;;;0.98;100.00;101287.06;105656;1258;99565;-78
2023/11/18 10:56:48;;;;;;;14.70;10.50;;;;;;;0.96;100.00;101286.83;105438;1260;99963;-76
2023/11/18 10:59:34;;;;;;;;;;;;;;;0.95;100.00;101290.13;105578;1262;98210;-77
2023/11/18 11:02:23;;;;;;;11.90;8.80;;;;;;;0.93;100.00;101293.06;105524;1263;99336;-77
2023/11/18 11:05:19;;;;;;;16.10;11.40;;;;;;;0.90;100.00;101292.20;106824;1259;101360;-78
2023/11/18 11:08:06;;;;;;;13.00;9.00;;;;;;;0.89;100.00;101295.96;105310;1260;99084;-77
2023/11/18 11:10:52;;;;;;;18.40;10.90;;;;;;;0.87;100.00;101294.39;105378;1270;99504;-77
2023/11/18 11:13:41;;;;;;;14.90;9.80;;;;;;;0.85;100.00;101295.02;105527;1256;98049;-77
2023/11/18 11:16:51;;;;;;;15.60;11.50;;;;;;;0.86;100.00;101302.73;105507;1259;99861;-76
2023/11/18 11:20:23;;;;;;;10.90;8.20;;;;;;;0.85;100.00;101313.31;105481;1260;102549;-77
2023/11/18 11:23:11;;;;;;;15.40;10.00;;;;;;;0.81;100.00;101319.38;105513;1265;99218;-76
2023/11/18 11:26:13;;;;;;;13.50;10.10;;;;;;;0.79;100.00;101317.95;105589;1260;99053;-77
2023/11/18 11:29:13;;;;;;;15.50;10.20;;;;;;;0.79;100.00;101317.98;105972;1259;98567;-77
2023/11/18 11:32:30;;;;;;;15.90;9.80;;;;;;;0.79;100.00;101320.76;105392;1257;97908;-77
2023/11/18 11:35:32;;;;;;;14.10;9.30;;;;;;;0.79;100.00;101327.25;105421;1261;101427;-77
2023/11/18 11:38:19;;;;;;;16.50;10.50;;;;;;;0.80;100.00;101334.19;105614;1258;100014;-78
2023/11/18 11:41:07;;;;;;;14.60;9.40;;;;;;;0.81;100.00;101339.94;105535;1268;99091;-76
2023/11/18 11:43:58;;;;;;;15.00;10.20;;;;;;;0.84;100.00;101344.35;105471;1257;98027;-77
2023/11/18 11:46:43;;;;;;;15.90;10.40;;;;;;;0.81;100.00;101349.10;105947;1260;97950;-77
2023/11/18 11:49:41;;;;;;;16.70;10.10;;;;;;;0.76;100.00;101345.55;105609;1259;101377;-76
2023/11/18 11:52:31;;;;;;;16.80;11.10;;;;;;;0.75;100.00;101344.77;105527;1260;101222;-77
2023/11/18 11:55:29;;;;;;;14.90;10.40;;;;;;;0.76;100.00;101348.36;105604;1260;99447;-77
2023/11/18 11:58:32;;;;;;;19.20;11.20;;;;;;;0.76;100.00;101351.39;105512;1260;97969;-78
2023/11/18 12:01:37;;;;;;;21.60;13.30;;;;;;;0.76;100.00;101355.73;105553;1258;100885;-76
2023/11/18 12:04:28;;;;;;;18.10;11.40;;;;;;;0.74;100.00;101357.15;105545;1258;102225;-77
2023/11/18 12:07:15;;;;;;;24.00;13.40;;;;;;;0.71;100.00;101361.38;105577;1262;99084;-78
2023/11/18 12:10:05;;;;;;;23.90;13.80;;;;;;;0.71;100.00;101367.90;105670;1260;97948;-78
2023/11/18 12:13:07;;;;;;;20.90;14.30;;;;;;;0.67;100.00;101370.95;105573;1257;97949;-78
2023/11/18 12:16:05;;;;;;;;;;;;;;;0.63;100.00;101373.52;105457;1260;97861;-77
2023/11/18 12:19:30;;;;;;;18.80;12.50;;;;;;;0.61;100.00;101377.72;105402;1257;101376;-78
2023/11/18 12:22:24;;;;;;;19.10;12.70;;;;;;;0.57;100.00;101382.42;105483;1264;99241;-76
2023/11/18 12:25:15;;;;;;;18.90;12.40;;;;;;;0.56;100.00;101386.02;105529;1270;99003;-77
2023/11/18 12:28:07;;;;;;;20.80;13.60;;;;;;;0.55;100.00;101392.34;105568;1259;97864;-76
2023/11/18 12:30:57;;;;;;;21.60;13.10;;;;;;;0.55;100.00;101397.80;105318;1258;99106;-77
2023/11/18 12:33:54;;;;;;;25.40;14.50;;;;;;;0.55;100.00;101402.39;105640;1259;102224;-77
2023/11/18 12:37:23;;;;;;;22.50;14.50;;;;;;;0.54;100.00;101402.09;105514;1259;99204;-78
2023/11/18 12:40:27;;;;;;;20.80;12.20;;;;;;;0.57;100.00;101408.59;105240;1260;97986;-77
2023/11/18 12:43:17;;;;;;;19.60;12.70;;;;;;;0.61;100.00;101407.80;105626;1257;98322;-77
2023/11/18 12:46:19;;;;;;;;;;;;;;;0.60;100.00;101412.41;105743;1259;97819;-77